createdAt,value
2018-12-24T00:00:28.259Z,2.10
2018-12-24T00:02:57.123Z,2.17
2018-12-24T00:05:26.071Z,2.80
2018-12-24T00:07:54.914Z,2.97
2018-12-24T00:10:23.751Z,1.97
2018-12-24T00:12:52.559Z,2.03
2018-12-24T00:15:21.398Z,2.90
2018-12-24T00:17:50.206Z,1.87
2018-12-24T00:20:19.055Z,1.80
2018-12-24T00:22:47.922Z,2.00
2018-12-24T00:25:16.883Z,2.10
2018-12-24T00:27:45.959Z,1.40
2018-12-24T00:30:14.804Z,1.57
2018-12-24T00:32:43.609Z,1.60
2018-12-24T00:35:12.457Z,1.10
2018-12-24T00:37:41.300Z,1.63
2018-12-24T00:40:10.168Z,1.47
2018-12-24T00:42:39.003Z,1.10
2018-12-24T00:45:07.839Z,1.53
2018-12-24T00:47:36.794Z,1.20
2018-12-24T00:50:05.766Z,1.63
2018-12-24T00:52:34.610Z,1.23
2018-12-24T00:55:03.447Z,1.50
2018-12-24T00:57:32.271Z,1.00
2018-12-24T01:00:01.381Z,2.13
2018-12-24T01:02:30.274Z,1.00
2018-12-24T01:04:59.083Z,1.83
2018-12-24T01:07:27.922Z,1.57
2018-12-24T01:09:56.760Z,1.57
2018-12-24T01:12:25.591Z,1.30
2018-12-24T01:14:54.426Z,1.23
2018-12-24T01:17:23.272Z,1.40
2018-12-24T01:19:52.154Z,2.53
2018-12-24T01:22:20.999Z,1.00
2018-12-24T01:24:49.867Z,1.93
2018-12-24T01:27:18.726Z,1.60
2018-12-24T01:29:47.744Z,1.73
2018-12-24T01:32:16.603Z,1.20
2018-12-24T01:34:45.525Z,1.50
2018-12-24T01:37:14.360Z,1.10
2018-12-24T01:39:43.227Z,1.70
2018-12-24T01:42:12.115Z,1.23
2018-12-24T01:44:40.975Z,1.30
2018-12-24T01:47:09.796Z,1.97
2018-12-24T01:49:38.619Z,0.97
2018-12-24T01:52:07.621Z,1.47
2018-12-24T01:54:36.458Z,1.33
2018-12-24T01:57:05.275Z,1.23
2018-12-24T01:59:34.102Z,1.23
2018-12-24T02:02:02.956Z,2.37
2018-12-24T02:04:31.783Z,1.53
2018-12-24T02:07:00.690Z,1.60
2018-12-24T02:09:29.566Z,1.60
2018-12-24T02:11:58.474Z,2.80
2018-12-24T02:14:27.443Z,1.20
2018-12-24T02:16:56.294Z,1.80
2018-12-24T02:19:25.148Z,1.70
2018-12-24T02:21:53.965Z,1.70
2018-12-24T02:24:22.791Z,1.73
2018-12-24T02:26:51.637Z,1.80
2018-12-24T02:29:20.462Z,1.53
2018-12-24T02:31:49.384Z,2.07
2018-12-24T02:34:18.226Z,1.87
2018-12-24T02:36:47.104Z,1.67
2018-12-24T02:39:16.022Z,1.63
2018-12-24T02:41:45.139Z,1.73
2018-12-24T02:44:14.143Z,1.73
2018-12-24T02:46:42.964Z,1.50
2018-12-24T02:49:11.833Z,1.30
2018-12-24T02:51:40.724Z,1.83
2018-12-24T02:54:09.614Z,1.40
2018-12-24T02:56:38.515Z,1.57
2018-12-24T02:59:07.353Z,2.10
2018-12-24T03:01:36.180Z,1.83
2018-12-24T03:04:04.979Z,1.70
2018-12-24T03:06:33.847Z,1.70
2018-12-24T03:09:03.234Z,1.53
2018-12-24T03:11:32.058Z,1.53
2018-12-24T03:14:00.911Z,1.37
2018-12-24T03:16:29.723Z,1.10
2018-12-24T03:18:58.790Z,2.10
2018-12-24T03:21:27.927Z,1.40
2018-12-24T03:23:56.736Z,1.40
2018-12-24T03:26:25.811Z,1.50
2018-12-24T03:28:54.617Z,1.20
2018-12-24T03:31:23.468Z,1.10
2018-12-24T03:33:52.294Z,1.93
2018-12-24T03:36:21.171Z,1.43
2018-12-24T03:38:50.016Z,1.37
2018-12-24T03:41:18.891Z,1.83
2018-12-24T03:43:47.739Z,1.30
2018-12-24T03:46:16.571Z,1.00
2018-12-24T03:48:45.382Z,1.47
2018-12-24T03:51:14.244Z,1.50
2018-12-24T03:53:43.192Z,1.00
2018-12-24T03:56:11.986Z,1.30
2018-12-24T03:58:40.809Z,1.10
2018-12-24T04:01:09.731Z,1.17
2018-12-24T04:03:38.534Z,1.03
2018-12-24T04:06:07.386Z,1.10
2018-12-24T04:08:36.226Z,1.00
2018-12-24T04:11:05.208Z,1.33
2018-12-24T04:13:34.045Z,0.93
2018-12-24T04:16:02.892Z,1.40
2018-12-24T04:18:31.707Z,1.10
2018-12-24T04:21:00.531Z,1.67
2018-12-24T04:23:29.356Z,0.97
2018-12-24T04:25:58.272Z,1.90
2018-12-24T04:28:27.160Z,1.83
2018-12-24T04:30:55.992Z,1.13
2018-12-24T04:33:24.776Z,1.33
2018-12-24T04:35:53.679Z,1.40
2018-12-24T04:38:22.557Z,1.43
2018-12-24T04:40:51.391Z,1.27
2018-12-24T04:43:20.193Z,1.63
2018-12-24T04:45:49.121Z,1.33
2018-12-24T04:48:17.919Z,1.17
2018-12-24T04:50:46.748Z,1.20
2018-12-24T04:53:15.581Z,1.20
2018-12-24T04:55:44.403Z,1.40
2018-12-24T04:58:13.236Z,1.30
2018-12-24T05:00:42.074Z,1.60
2018-12-24T05:03:10.961Z,0.97
2018-12-24T05:05:39.791Z,1.30
2018-12-24T05:08:08.628Z,1.00
2018-12-24T05:10:37.606Z,0.90
2018-12-24T05:13:06.508Z,1.10
2018-12-24T05:15:35.364Z,1.30
2018-12-24T05:18:04.191Z,1.80
2018-12-24T05:20:33.042Z,0.83
2018-12-24T05:23:01.859Z,1.47
2018-12-24T05:25:30.695Z,1.50
2018-12-24T05:27:59.523Z,1.87
2018-12-24T05:30:28.359Z,1.97
2018-12-24T05:32:57.203Z,1.20
2018-12-24T05:35:26.056Z,2.03
2018-12-24T05:37:54.850Z,2.27
2018-12-24T05:40:23.743Z,1.70
2018-12-24T05:42:52.550Z,1.77
2018-12-24T05:45:21.373Z,1.70
2018-12-24T05:47:50.340Z,1.40
2018-12-24T05:50:19.167Z,3.77
2018-12-24T05:52:48.039Z,1.67
2018-12-24T05:55:16.867Z,1.37
2018-12-24T05:57:45.754Z,1.70
2018-12-24T06:00:14.639Z,2.00
2018-12-24T06:02:43.560Z,1.50
2018-12-24T06:05:12.376Z,3.13
2018-12-24T06:07:41.212Z,1.50
2018-12-24T06:10:10.212Z,1.50
2018-12-24T06:12:39.027Z,1.10
2018-12-24T06:15:07.943Z,2.30
2018-12-24T06:17:36.751Z,1.30
2018-12-24T06:20:05.797Z,2.60
2018-12-24T06:22:34.667Z,1.63
2018-12-24T06:25:05.408Z,1.67
2018-12-24T06:27:34.090Z,1.30
2018-12-24T06:30:02.969Z,1.60
2018-12-24T06:32:32.008Z,1.57
2018-12-24T06:35:00.819Z,2.47
2018-12-24T06:37:29.738Z,1.43
2018-12-24T06:39:58.663Z,1.67
2018-12-24T06:42:27.480Z,1.77
2018-12-24T06:44:56.304Z,1.10
2018-12-24T06:47:25.200Z,1.13
2018-12-24T06:49:54.398Z,1.33
2018-12-24T06:52:23.244Z,1.67
2018-12-24T06:54:52.086Z,1.40
2018-12-24T06:57:20.907Z,1.43
2018-12-24T06:59:49.727Z,1.47
2018-12-24T07:02:18.712Z,1.77
2018-12-24T07:04:47.559Z,1.33
2018-12-24T07:07:16.403Z,1.20
2018-12-24T07:09:45.227Z,1.33
2018-12-24T07:12:14.124Z,1.30
2018-12-24T07:14:42.951Z,2.07
2018-12-24T07:17:11.766Z,1.60
2018-12-24T07:19:40.581Z,2.10
2018-12-24T07:22:09.518Z,1.60
2018-12-24T07:24:38.491Z,1.67
2018-12-24T07:27:07.311Z,2.00
2018-12-24T07:29:36.154Z,2.10
2018-12-24T07:32:04.998Z,2.07
2018-12-24T07:34:34.291Z,1.47
2018-12-24T07:37:03.090Z,2.10
2018-12-24T07:39:32.063Z,1.60
2018-12-24T07:42:00.992Z,2.00
2018-12-24T07:44:29.795Z,2.17
2018-12-24T07:46:58.634Z,2.87
2018-12-24T07:49:27.463Z,2.17
2018-12-24T07:51:56.295Z,1.80
2018-12-24T07:54:25.130Z,2.13
2018-12-24T07:56:53.938Z,1.67
2018-12-24T07:59:22.959Z,1.53
2018-12-24T08:01:51.785Z,2.30
2018-12-24T08:04:20.623Z,1.77
2018-12-24T08:06:49.532Z,1.97
2018-12-24T08:09:18.895Z,1.60
2018-12-24T08:11:47.716Z,1.53
2018-12-24T08:14:16.575Z,2.07
2018-12-24T08:16:45.408Z,1.37
2018-12-24T08:19:14.332Z,1.87
2018-12-24T08:21:43.176Z,1.80
2018-12-24T08:24:12.197Z,1.60
2018-12-24T08:26:41.040Z,1.87
2018-12-24T08:29:09.882Z,2.10
2018-12-24T08:31:38.762Z,2.40
2018-12-24T08:34:07.616Z,2.20
2018-12-24T08:36:55.656Z,2.07
2018-12-24T08:39:25.261Z,2.27
2018-12-24T08:41:54.182Z,1.83
2018-12-24T08:44:23.103Z,1.93
2018-12-24T08:46:51.948Z,2.37
2018-12-24T08:49:20.750Z,1.90
2018-12-24T08:51:49.603Z,2.30
2018-12-24T08:54:18.427Z,1.87
2018-12-24T08:56:47.384Z,1.93
2018-12-24T08:59:16.260Z,2.47
2018-12-24T09:01:45.094Z,2.03
2018-12-24T09:04:13.971Z,2.77
2018-12-24T09:06:42.881Z,2.87
2018-12-24T09:09:11.731Z,3.40
2018-12-24T09:11:40.566Z,2.60
2018-12-24T09:14:09.568Z,2.77
2018-12-24T09:16:38.395Z,2.30
2018-12-24T09:19:07.212Z,2.53
2018-12-24T09:21:36.210Z,3.20
2018-12-24T09:24:05.176Z,2.40
2018-12-24T09:26:34.023Z,3.00
2018-12-24T09:29:02.871Z,3.37
2018-12-24T09:31:31.711Z,2.17
2018-12-24T09:34:00.551Z,3.00
2018-12-24T09:36:29.363Z,2.97
2018-12-24T09:38:58.213Z,2.93
2018-12-24T09:41:27.031Z,2.17
2018-12-24T09:43:55.878Z,2.30
2018-12-24T09:46:24.849Z,2.33
2018-12-24T09:48:53.738Z,1.73
2018-12-24T09:51:22.611Z,2.50
2018-12-24T09:53:51.483Z,2.90
2018-12-24T09:56:20.326Z,2.67
2018-12-24T09:58:49.143Z,2.33
2018-12-24T10:01:18.121Z,2.03
2018-12-24T10:03:53.583Z,2.67
2018-12-24T10:06:29.690Z,2.80
2018-12-24T10:09:00.059Z,3.67
2018-12-24T10:11:28.916Z,3.00
2018-12-24T10:13:57.757Z,2.07
2018-12-24T10:16:26.580Z,2.60
2018-12-24T10:18:55.391Z,2.70
2018-12-24T10:21:24.472Z,2.33
2018-12-24T10:23:53.572Z,2.90
2018-12-24T10:26:22.719Z,2.20
2018-12-24T10:28:51.643Z,2.53
2018-12-24T10:31:20.487Z,2.37
2018-12-24T10:33:49.361Z,2.60
2018-12-24T10:36:18.183Z,3.10
2018-12-24T10:38:47.055Z,1.93
2018-12-24T10:41:18.987Z,2.20
2018-12-24T10:43:47.874Z,2.83
2018-12-24T10:46:16.698Z,2.30
2018-12-24T10:48:46.609Z,1.77
2018-12-24T10:51:15.665Z,2.30
2018-12-24T10:53:44.571Z,2.17
2018-12-24T10:56:13.538Z,1.60
2018-12-24T10:58:42.683Z,2.20
2018-12-24T11:01:11.646Z,1.67
2018-12-24T11:03:40.820Z,1.80
2018-12-24T11:06:09.720Z,2.47
2018-12-24T11:08:38.550Z,2.50
2018-12-24T11:11:07.412Z,1.90
2018-12-24T11:13:36.462Z,1.93
2018-12-24T11:16:05.418Z,2.20
2018-12-24T11:18:35.263Z,2.83
2018-12-24T11:21:04.168Z,3.23
2018-12-24T11:23:32.987Z,2.70
2018-12-24T11:26:01.867Z,2.90
2018-12-24T11:28:30.700Z,3.10
2018-12-24T11:30:59.592Z,3.70
2018-12-24T11:33:28.441Z,1.97
2018-12-24T11:35:57.269Z,2.13
2018-12-24T11:38:26.203Z,2.20
2018-12-24T11:40:55.010Z,3.23
2018-12-24T11:43:43.070Z,2.60
2018-12-24T11:46:11.991Z,2.23
2018-12-24T11:48:40.831Z,2.67
2018-12-24T11:51:09.748Z,1.50
2018-12-24T11:53:38.666Z,2.60
2018-12-24T11:56:07.496Z,2.03
2018-12-24T11:58:55.575Z,2.30
2018-12-24T12:01:24.399Z,2.53
2018-12-24T12:03:53.232Z,2.93
2018-12-24T12:06:22.038Z,3.03
2018-12-24T12:08:50.991Z,2.80
2018-12-24T12:11:19.901Z,2.70
2018-12-24T12:13:48.854Z,2.03
2018-12-24T12:16:17.678Z,2.57
2018-12-24T12:18:46.519Z,3.20
2018-12-24T12:21:15.496Z,2.90
2018-12-24T12:23:44.399Z,2.47
2018-12-24T12:26:13.214Z,2.83
2018-12-24T12:28:42.034Z,2.50
2018-12-24T12:31:10.892Z,2.60
2018-12-24T12:33:39.706Z,3.10
2018-12-24T12:36:08.679Z,3.33
2018-12-24T12:38:37.499Z,2.60
2018-12-24T12:41:06.383Z,2.73
2018-12-24T12:43:35.291Z,3.50
2018-12-24T12:46:04.107Z,3.20
2018-12-24T12:48:32.941Z,3.07
2018-12-24T12:51:01.782Z,3.40
2018-12-24T12:53:30.637Z,3.37
2018-12-24T12:55:59.491Z,2.50
2018-12-24T12:58:28.361Z,3.47
2018-12-24T13:01:16.435Z,3.33
2018-12-24T13:03:45.293Z,3.10
2018-12-24T13:06:14.094Z,3.00
2018-12-24T13:08:42.975Z,2.77
2018-12-24T13:11:11.905Z,2.57
2018-12-24T13:13:40.824Z,3.57
2018-12-24T13:16:09.731Z,2.50
2018-12-24T13:18:38.639Z,2.60
2018-12-24T13:21:07.569Z,2.60
2018-12-24T13:23:55.664Z,3.03
2018-12-24T13:26:24.567Z,4.00
2018-12-24T13:28:53.491Z,2.40
2018-12-24T13:31:23.375Z,2.30
2018-12-24T13:33:52.255Z,3.23
2018-12-24T13:36:21.102Z,3.47
2018-12-24T13:38:49.948Z,2.53
2018-12-24T13:41:18.800Z,2.60
2018-12-24T13:43:47.709Z,3.10
2018-12-24T13:46:17.211Z,2.23
2018-12-24T13:48:46.103Z,2.63
2018-12-24T13:51:15.135Z,2.47
2018-12-24T13:53:44.071Z,3.03
2018-12-24T13:56:13.247Z,3.00
2018-12-24T13:58:42.273Z,2.90
2018-12-24T14:01:11.091Z,2.60
2018-12-24T14:03:40.057Z,2.97
2018-12-24T14:06:09.089Z,3.00
2018-12-24T14:08:37.926Z,2.20
2018-12-24T14:11:06.817Z,2.60
2018-12-24T14:13:35.801Z,2.60
2018-12-24T14:16:04.615Z,2.90
2018-12-24T14:18:33.446Z,2.20
2018-12-24T14:21:02.542Z,2.60
2018-12-24T14:23:31.423Z,2.67
2018-12-24T14:26:00.287Z,2.77
2018-12-24T14:28:29.198Z,2.50
2018-12-24T14:30:58.039Z,5.13
2018-12-24T14:33:26.866Z,3.07
2018-12-24T14:35:55.766Z,2.60
2018-12-24T14:38:24.604Z,3.63
2018-12-24T14:40:53.434Z,2.20
2018-12-24T14:43:22.351Z,2.70
2018-12-24T14:45:51.358Z,2.30
2018-12-24T14:48:20.187Z,2.30
2018-12-24T14:50:49.242Z,5.53
2018-12-24T14:53:18.119Z,3.17
2018-12-24T14:55:46.976Z,2.23
2018-12-24T14:58:16.094Z,2.63
2018-12-24T15:00:44.978Z,2.60
2018-12-24T15:03:13.835Z,2.80
2018-12-24T15:05:42.678Z,3.33
2018-12-24T15:08:11.624Z,2.73
2018-12-24T15:10:42.668Z,4.10
2018-12-24T15:13:12.152Z,2.40
2018-12-24T15:15:40.969Z,2.30
2018-12-24T15:18:09.967Z,3.30
2018-12-24T15:20:38.798Z,2.53
2018-12-24T15:23:07.622Z,3.27
2018-12-24T15:25:36.594Z,2.90
2018-12-24T15:28:06.354Z,2.83
2018-12-24T15:30:35.260Z,3.00
2018-12-24T15:33:04.145Z,3.00
2018-12-24T15:35:36.017Z,2.87
2018-12-24T15:38:04.907Z,4.43
2018-12-24T15:40:33.845Z,2.70
2018-12-24T15:43:02.787Z,3.60
2018-12-24T15:45:31.623Z,3.33
2018-12-24T15:48:00.514Z,2.87
2018-12-24T15:50:30.174Z,3.40
2018-12-24T15:52:59.186Z,3.20
2018-12-24T15:55:28.069Z,2.80
2018-12-24T15:57:56.872Z,2.43
2018-12-24T16:00:25.755Z,3.93
2018-12-24T16:02:54.582Z,2.80
2018-12-24T16:05:23.490Z,3.20
2018-12-24T16:07:52.382Z,3.33
2018-12-24T16:10:21.196Z,3.23
2018-12-24T16:12:50.035Z,2.63
2018-12-24T16:15:18.875Z,3.20
2018-12-24T16:17:47.802Z,3.03
2018-12-24T16:20:16.689Z,2.60
2018-12-24T16:22:45.520Z,3.60
2018-12-24T16:25:14.353Z,4.03
2018-12-24T16:27:43.188Z,3.50
2018-12-24T16:30:12.087Z,3.23
2018-12-24T16:32:41.016Z,3.87
2018-12-24T16:35:09.815Z,4.40
2018-12-24T16:37:38.674Z,4.47
2018-12-24T16:40:07.600Z,4.23
2018-12-24T16:42:36.515Z,4.10
2018-12-24T16:45:05.462Z,4.37
2018-12-24T16:47:34.299Z,4.37
2018-12-24T16:50:03.350Z,5.20
2018-12-24T16:52:32.191Z,4.77
2018-12-24T16:55:01.022Z,4.60
2018-12-24T16:57:29.960Z,3.70
2018-12-24T16:59:58.807Z,4.50
2018-12-24T17:02:27.672Z,5.53
2018-12-24T17:04:56.582Z,4.47
2018-12-24T17:07:25.432Z,4.93
2018-12-24T17:09:54.537Z,4.77
2018-12-24T17:12:23.659Z,5.40
2018-12-24T17:14:52.475Z,4.20
2018-12-24T17:17:21.306Z,4.10
2018-12-24T17:19:50.162Z,4.53
2018-12-24T17:22:18.978Z,4.70
2018-12-24T17:24:47.836Z,5.30
2018-12-24T17:27:16.654Z,5.00
2018-12-24T17:29:45.742Z,4.20
2018-12-24T17:32:14.606Z,4.23
2018-12-24T17:34:43.466Z,4.50
2018-12-24T17:37:12.287Z,4.93
2018-12-24T17:39:41.171Z,4.90
2018-12-24T17:42:10.010Z,4.50
2018-12-24T17:44:38.977Z,5.23
2018-12-24T17:47:16.091Z,5.07
2018-12-24T17:49:38.351Z,4.40
2018-12-24T17:52:07.182Z,5.30
2018-12-24T17:54:36.024Z,5.70
2018-12-24T17:57:04.942Z,4.40
2018-12-24T17:59:33.875Z,4.57
2018-12-24T18:02:02.684Z,5.20
2018-12-24T18:04:31.505Z,5.30
2018-12-24T18:07:00.319Z,5.70
2018-12-24T18:09:29.140Z,5.50
2018-12-24T18:11:58.067Z,5.80
2018-12-24T18:14:26.887Z,6.50
2018-12-24T18:16:55.711Z,5.80
2018-12-24T18:19:24.509Z,5.13
2018-12-24T18:21:53.345Z,4.27
2018-12-24T18:24:22.204Z,4.87
2018-12-24T18:26:51.048Z,5.60
2018-12-24T18:29:19.927Z,5.23
2018-12-24T18:31:48.734Z,5.63
2018-12-24T18:34:17.561Z,5.83
2018-12-24T18:36:46.446Z,6.33
2018-12-24T18:39:15.950Z,4.70
2018-12-24T18:41:44.766Z,4.70
2018-12-24T18:44:13.599Z,4.20
2018-12-24T18:46:42.423Z,4.37
2018-12-24T18:49:11.356Z,4.30
2018-12-24T18:51:40.169Z,4.23
2018-12-24T18:54:13.525Z,4.00
2018-12-24T18:56:42.376Z,4.90
2018-12-24T18:59:11.224Z,3.63
2018-12-24T19:01:40.057Z,4.10
2018-12-24T19:04:09.008Z,4.17
2018-12-24T19:06:37.834Z,4.17
2018-12-24T19:09:07.220Z,3.77
2018-12-24T19:11:36.227Z,2.60
2018-12-24T19:14:05.118Z,3.30
2018-12-24T19:16:34.135Z,3.30
2018-12-24T19:19:02.984Z,3.83
2018-12-24T19:21:31.840Z,3.27
2018-12-24T19:24:00.678Z,3.50
2018-12-24T19:26:29.490Z,4.00
2018-12-24T19:28:58.463Z,3.17
2018-12-24T19:31:27.292Z,2.80
2018-12-24T19:33:56.124Z,3.07
2018-12-24T19:36:24.981Z,3.60
2018-12-24T19:38:54.021Z,3.00
2018-12-24T19:41:22.841Z,2.13
2018-12-24T19:43:51.670Z,3.00
2018-12-24T19:46:20.718Z,3.27
2018-12-24T19:48:49.558Z,3.23
2018-12-24T19:51:18.383Z,2.80
2018-12-24T19:53:47.383Z,3.07
2018-12-24T19:56:16.454Z,2.87
2018-12-24T19:58:45.308Z,2.50
2018-12-24T20:01:14.246Z,3.07
2018-12-24T20:03:43.152Z,2.67
2018-12-24T20:06:12.106Z,2.47
2018-12-24T20:08:41.222Z,3.70
2018-12-24T20:11:10.138Z,3.60
2018-12-24T20:13:38.960Z,3.20
2018-12-24T20:16:07.779Z,4.70
2018-12-24T20:18:36.738Z,4.60
2018-12-24T20:21:05.579Z,5.40
2018-12-24T20:23:34.403Z,5.27
2018-12-24T20:26:03.233Z,4.83
2018-12-24T20:28:32.461Z,5.47
2018-12-24T20:31:01.264Z,5.70
2018-12-24T20:33:30.076Z,5.50
2018-12-24T20:35:58.955Z,4.90
2018-12-24T20:38:27.812Z,5.67
2018-12-24T20:40:56.634Z,4.77
2018-12-24T20:43:25.463Z,6.10
2018-12-24T20:45:54.394Z,5.27
2018-12-24T20:48:23.224Z,5.47
2018-12-24T20:50:52.211Z,4.90
2018-12-24T20:53:21.127Z,5.77
2018-12-24T20:55:49.958Z,4.47
2018-12-24T20:58:18.794Z,5.90
2018-12-24T21:00:47.789Z,4.67
2018-12-24T21:03:16.627Z,5.37
2018-12-24T21:05:45.528Z,5.00
2018-12-24T21:08:14.421Z,6.13
2018-12-24T21:10:43.279Z,4.70
2018-12-24T21:13:12.091Z,5.63
2018-12-24T21:15:40.918Z,4.60
2018-12-24T21:18:15.041Z,4.90
2018-12-24T21:20:40.283Z,4.87
2018-12-24T21:23:09.148Z,5.27
2018-12-24T21:25:38.083Z,4.70
2018-12-24T21:28:06.911Z,5.33
2018-12-24T21:30:35.847Z,4.90
2018-12-24T21:33:04.833Z,4.80
2018-12-24T21:35:33.710Z,4.93
2018-12-24T21:38:02.538Z,5.60
2018-12-24T21:40:31.403Z,4.97
2018-12-24T21:43:00.218Z,5.50
2018-12-24T21:45:29.128Z,4.93
2018-12-24T21:47:57.998Z,6.03
2018-12-24T21:50:26.936Z,3.87
2018-12-24T21:52:55.744Z,5.10
2018-12-24T21:55:24.684Z,4.90
2018-12-24T21:57:53.977Z,5.70
2018-12-24T22:00:22.955Z,4.87
2018-12-24T22:02:51.793Z,5.10
2018-12-24T22:05:20.667Z,5.20
2018-12-24T22:07:49.528Z,5.27
2018-12-24T22:10:18.334Z,5.33
2018-12-24T22:12:47.154Z,5.40
2018-12-24T22:15:15.999Z,4.23
2018-12-24T22:17:44.802Z,4.50
2018-12-24T22:20:13.667Z,4.33
2018-12-24T22:22:44.026Z,4.80
2018-12-24T22:25:13.192Z,4.03
2018-12-24T22:27:41.999Z,4.37
2018-12-24T22:30:10.836Z,4.93
2018-12-24T22:32:39.653Z,4.50
2018-12-24T22:35:08.507Z,4.47
2018-12-24T22:37:37.743Z,4.67
2018-12-24T22:40:06.899Z,5.23
2018-12-24T22:42:35.858Z,4.60
2018-12-24T22:45:04.874Z,4.50
2018-12-24T22:47:33.718Z,5.00
2018-12-24T22:50:02.644Z,4.43
2018-12-24T22:52:31.492Z,3.93
2018-12-24T22:55:00.404Z,4.33
2018-12-24T22:57:29.240Z,3.70
2018-12-24T22:59:58.053Z,4.63
2018-12-24T23:02:26.906Z,5.77
2018-12-24T23:04:56.017Z,3.90
2018-12-24T23:07:24.934Z,3.57
2018-12-24T23:09:53.850Z,4.60
2018-12-24T23:12:22.691Z,4.50
2018-12-24T23:14:51.507Z,3.87
2018-12-24T23:17:20.359Z,4.00
2018-12-24T23:19:49.187Z,3.93
2018-12-24T23:22:18.036Z,3.83
2018-12-24T23:24:46.848Z,3.57
2018-12-24T23:27:15.842Z,3.40
2018-12-24T23:29:44.690Z,2.80
2018-12-24T23:32:13.683Z,4.03
2018-12-24T23:34:42.559Z,3.27
2018-12-24T23:37:11.375Z,3.60
2018-12-24T23:39:40.204Z,3.27
2018-12-24T23:42:09.139Z,3.73
2018-12-24T23:44:38.000Z,3.30
2018-12-24T23:47:07.107Z,3.30
2018-12-24T23:49:35.934Z,3.37
2018-12-24T23:52:04.824Z,3.00
2018-12-24T23:54:33.737Z,3.20
2018-12-24T23:57:02.566Z,3.70
2018-12-24T23:59:31.398Z,2.73
